ポンタ・デルガダ空港の過去48時間の天気

ポンタ・デルガダ空港 (Ponta Delgada / Nordela Acores )

現在時刻: 9/22 21:20 +00 (9/22 21:20 UTC) 以下の時間は現地時間です。

過去48時間のMETAR気象情報
時間 風向 風速(m/s) 視程 気温(℃) 湿度(%) 気圧(hPa) 天気現象
22 21:00 南西 6 10km以上 22 100 1016
22 20:30 西南西 7 10km以上 22 100 1015
22 20:00 西南西 7 10km以上 22 100 1015
22 19:30 南西 6 10km以上 23 94 1015
22 19:00 南西 7 10km以上 23 94 1015
22 18:30 南西 7 10km以上 23 94 1014
22 18:00 南西 7 10km以上 23 94 1014
22 17:30 南西 8 10km以上 22 100 1014
22 17:00 南西 8 10km以上 22 94 1014
22 16:30 南西 8 10km以上 23 89 1015
22 16:00 南西 8 10km以上 22 94 1015
22 15:30 南西 8 10km以上 22 94 1015
22 15:00 南西 8 10km以上 22 94 1016
22 14:30 南西 9 9000m 22 94 1015
22 14:00 南西 8 9000m 23 89 1016
22 13:30 南西 8 10km以上 23 89 1016
22 13:00 南南西 7 10km以上 22 94 1016
22 12:30 南西 7 10km以上 21 94 1017
22 12:00 南西 8 10km以上 22 88 1017
22 11:30 南西 7 10km以上 22 83 1017
22 11:00 南西 7 10km以上 22 83 1017
22 10:30 南西 9 10km以上 22 83 1017
22 10:00 南西 8 10km以上 22 83 1017
22 09:30 南西 7 10km以上 22 78 1017
22 09:00 南西 7 10km以上 22 78 1017
22 08:30 南西 7 10km以上 21 83 1017
22 08:00 南西 7 10km以上 21 83 1017
22 07:30 南西 6 10km以上 21 78 1017
22 07:00 南西 7 10km以上 21 78 1017
22 06:30 南西 6 10km以上 21 78 1016
22 06:00 南西 6 10km以上 21 73 1016
22 05:30 西南西 6 10km以上 21 78 1017
22 05:00 西南西 6 10km以上 21 78 1017
22 04:30 西南西 6 10km以上 21 78 1016
22 04:00 西南西 6 10km以上 21 78 1017
22 03:30 西南西 4 10km以上 21 78 1017
22 03:00 西 4 10km以上 21 73 1017
22 02:30 西南西 3 10km以上 21 78 1018
22 02:00 西 5 10km以上 21 78 1018
22 01:30 不定 2 10km以上 21 73 1018
22 01:00 1 10km以上 19 83 1018
22 00:30 不定 1 10km以上 19 83 1018
22 00:00 静穏 0 10km以上 19 83 1018
21 23:30 静穏 0 10km以上 19 78 1018
21 23:00 不定 1 10km以上 19 78 1018
21 22:30 北北西 2 10km以上 19 78 1018
21 22:00 2 10km以上 19 78 1019
21 21:30 2 10km以上 19 78 1018
21 21:00 3 10km以上 19 78 1018
21 20:30 2 10km以上 20 73 1018
21 20:00 北西 3 10km以上 21 73 1018
21 19:30 西北西 5 10km以上 21 73 1017
21 19:00 西北西 6 10km以上 22 69 1017
21 18:30 西 6 10km以上 22 69 1017
21 18:00 西 7 10km以上 22 73 1017
21 17:30 西 7 10km以上 22 69 1017
21 17:00 西 7 10km以上 23 69 1017
21 16:30 西北西 7 10km以上 23 69 1017
21 16:00 西北西 7 10km以上 22 69 1017
21 15:30 西 8 10km以上 23 61 1017
21 15:00 西 8 10km以上 23 65 1017
21 14:30 西 8 10km以上 23 65 1017
21 14:00 西北西 8 10km以上 22 69 1017
21 13:30 西北西 7 10km以上 22 73 1017
21 13:00 西北西 9 10km以上 22 65 1017
21 12:30 西北西 9 10km以上 22 69 1017
21 12:00 西北西 8 10km以上 22 65 1017
21 11:30 西北西 7 10km以上 21 73 1017
21 11:00 西北西 8 10km以上 22 65 1017
21 10:30 西北西 7 10km以上 21 69 1017
21 10:00 西北西 6 10km以上 21 69 1017
21 09:30 北西 4 10km以上 20 73 1017
21 09:00 北西 4 10km以上 20 73 1017 周辺でしゅう雨
21 08:30 北西 5 10km以上 20 73 1016
21 08:00 北北西 4 10km以上 20 64 1016 周辺でしゅう雨
21 07:30 北北西 5 10km以上 19 68 1016
21 07:00 北北西 5 10km以上 19 68 1016
21 06:30 北西 5 10km以上 19 68 1016
21 06:00 西北西 6 10km以上 19 83 1016
21 05:30 北西 5 10km以上 19 73 1016
21 05:00 北西 4 10km以上 19 68 1015
21 04:30 北西 5 10km以上 19 64 1015
21 04:00 北西 6 10km以上 20 64 1015
21 03:30 北西 6 10km以上 20 64 1015
21 03:00 北西 7 10km以上 20 68 1015
21 02:30 北西 5 10km以上 20 73 1016
21 02:00 北西 5 10km以上 19 73 1016
21 01:30 北西 5 10km以上 19 73 1016
21 01:00 北西 5 10km以上 19 73 1016
21 00:30 北西 5 10km以上 20 73 1016
21 00:00 北西 3 10km以上 20 73 1016
20 23:30 北西 4 10km以上 19 78 1016
20 23:00 北西 2 10km以上 20 73 1016
20 22:30 北北西 3 10km以上 20 73 1016
20 22:00 北北西 4 10km以上 20 68 1016
20 21:30 北北西 4 10km以上 20 68 1016
LPPD 222100Z 23011KT 9999 SCT004 BKN011 22/22 Q1016
LPPD 222030Z 24014KT 9999 FEW004 BKN011 22/22 Q1015
LPPD 222000Z 24014KT 9999 FEW004 SCT012 22/22 Q1015
LPPD 221930Z 23011KT 9999 FEW004 SCT014 23/22 Q1015
LPPD 221900Z 23013KT 9999 FEW004 BKN007 BKN035 23/22 Q1015
LPPD 221830Z 23013KT 9999 FEW004 BKN007 BKN035 23/22 Q1014
LPPD 221800Z 22014KT 9999 FEW004 BKN007 BKN035 23/22 Q1014
LPPD 221730Z 23016KT 9999 FEW004 BKN007 BKN045 22/22 Q1014
LPPD 221700Z 23016G26KT 9999 FEW004 BKN007 BKN045 22/21 Q1014
LPPD 221630Z 23015KT 9999 FEW004 BKN008 BKN045 23/21 Q1015
LPPD 221600Z 23016KT 9999 FEW004 BKN008 BKN045 22/21 Q1015
LPPD 221530Z 22015KT 9999 FEW004 BKN008 BKN045 22/21 Q1015
LPPD 221500Z 22016KT 9999 FEW004 BKN008 BKN045 22/21 Q1016
LPPD 221430Z 22017KT 9000 FEW004 SCT010 BKN045 22/21 Q1015
LPPD 221400Z 22016KT 9000 FEW004 SCT010 BKN045 23/21 Q1016
LPPD 221330Z 22015KT 9999 FEW004 SCT014 BKN045 23/21 Q1016
LPPD 221300Z 21014KT 9999 SCT013 BKN030 22/21 Q1016
LPPD 221230Z 22014KT 9999 SCT012 BKN030 21/20 Q1017
LPPD 221200Z 23016KT 9999 SCT013 BKN035 22/20 Q1017
LPPD 221130Z 23014KT 9999 FEW016 BKN040 22/19 Q1017
LPPD 221100Z 23014KT 9999 FEW018 BKN040 22/19 Q1017
LPPD 221030Z 23017KT 9999 FEW018 BKN040 22/19 Q1017
LPPD 221000Z 23016KT 9999 FEW018 SCT040 22/19 Q1017
LPPD 220930Z 23013KT 9999 FEW018 BKN040 22/18 Q1017
LPPD 220900Z 23013KT 9999 FEW016 BKN040 22/18 Q1017
LPPD 220830Z 23013KT 9999 FEW016 BKN045 21/18 Q1017
LPPD 220800Z 22014KT 9999 FEW016 BKN045 21/18 Q1017
LPPD 220730Z 23012KT 9999 FEW018 21/17 Q1017
LPPD 220700Z 22013KT 9999 FEW018 21/17 Q1017
LPPD 220630Z 23012KT 9999 FEW018 21/17 Q1016
LPPD 220600Z 23012KT 9999 FEW018 21/16 Q1016
LPPD 220530Z 24012KT 9999 FEW018 21/17 Q1017
LPPD 220500Z 25012KT 9999 FEW018 SCT030 21/17 Q1017
LPPD 220430Z 24012KT 9999 FEW018 21/17 Q1016
LPPD 220400Z 25011KT 9999 FEW018 21/17 Q1017
LPPD 220330Z 25008KT 9999 FEW018 21/17 Q1017
LPPD 220300Z 26007KT 9999 FEW018 21/16 Q1017
LPPD 220230Z 25006KT 9999 FEW018 21/17 Q1018
LPPD 220200Z 26009KT 9999 FEW018 SCT030 21/17 Q1018
LPPD 220130Z VRB03KT 9999 FEW020 SCT030 21/16 Q1018
LPPD 220100Z 01002KT 9999 FEW018 SCT025 19/16 Q1018
LPPD 220030Z VRB02KT 9999 FEW020 SCT030 19/16 Q1018
LPPD 220000Z 00000KT 9999 FEW022 19/16 Q1018
LPPD 212330Z 00000KT 9999 FEW020 19/15 Q1018
LPPD 212300Z VRB02KT 9999 FEW020 SCT045 19/15 Q1018
LPPD 212230Z 34003KT 320V020 9999 FEW020 SCT045 19/15 Q1018
LPPD 212200Z 36004KT 9999 FEW020 19/15 Q1019
LPPD 212130Z 35004KT 9999 FEW022 19/15 Q1018
LPPD 212100Z 35005KT 9999 FEW022 19/15 Q1018
LPPD 212030Z 35004KT 320V030 9999 FEW022 20/15 Q1018
LPPD 212000Z 32006KT 9999 FEW022 21/16 Q1018
LPPD 211930Z 30009KT 9999 FEW025 21/16 Q1017
LPPD 211900Z 29011KT 9999 FEW025 22/16 Q1017
LPPD 211830Z 28012KT 9999 FEW025 22/16 Q1017
LPPD 211800Z 28013KT 9999 FEW025 22/17 Q1017
LPPD 211730Z 28014KT 9999 FEW025 22/16 Q1017
LPPD 211700Z 28014KT 9999 FEW025 23/17 Q1017
LPPD 211630Z 29014KT 9999 FEW025 23/17 Q1017
LPPD 211600Z 29013KT 9999 FEW025 22/16 Q1017
LPPD 211530Z 28015KT 9999 FEW025 23/15 Q1017
LPPD 211500Z 28015KT 9999 FEW025 23/16 Q1017
LPPD 211430Z 28015KT 9999 FEW022 23/16 Q1017
LPPD 211400Z 29015KT 9999 SCT022 22/16 Q1017
LPPD 211330Z 29014KT 9999 FEW025 22/17 Q1017
LPPD 211300Z 29017KT 9999 FEW025 22/15 Q1017
LPPD 211230Z 29017KT 9999 FEW025 22/16 Q1017
LPPD 211200Z 29016KT 9999 FEW025 SCT045 22/15 Q1017
LPPD 211130Z 29014KT 9999 FEW025 SCT045 21/16 Q1017
LPPD 211100Z 29016KT 9999 FEW025 22/15 Q1017
LPPD 211030Z 30014KT 9999 FEW025 21/15 Q1017
LPPD 211000Z 29011KT 9999 FEW022 21/15 Q1017
LPPD 210930Z 31008KT 9999 FEW020 20/15 Q1017
LPPD 210900Z 31007KT 9999 VCSH FEW020 BKN035 20/15 Q1017
LPPD 210830Z 31010KT 9999 FEW020 SCT035 20/15 Q1016
LPPD 210800Z 33008KT 9999 VCSH FEW020 SCT040 20/13 Q1016
LPPD 210730Z 33009KT 9999 FEW020 SCT045 19/13 Q1016
LPPD 210700Z 33009KT 9999 FEW020 19/13 Q1016
LPPD 210630Z 32009KT 9999 FEW020 19/13 Q1016
LPPD 210600Z 30011KT 9999 FEW020 BKN035 19/16 Q1016
LPPD 210530Z 31010KT 9999 FEW020 BKN040 19/14 Q1016
LPPD 210500Z 32008KT 9999 FEW020 19/13 Q1015
LPPD 210430Z 32009KT 9999 FEW020 19/12 Q1015
LPPD 210400Z 32011KT 9999 FEW020 20/13 Q1015
LPPD 210330Z 31012KT 9999 FEW020 SCT040 20/13 Q1015
LPPD 210300Z 31013KT 9999 FEW020 SCT040 20/14 Q1015
LPPD 210230Z 31009KT 9999 FEW020 20/15 Q1016
LPPD 210200Z 32009KT 9999 FEW020 19/14 Q1016
LPPD 210130Z 31009KT 9999 FEW020 19/14 Q1016
LPPD 210100Z 31009KT 9999 FEW020 19/14 Q1016
LPPD 210030Z 32010KT 9999 FEW022 SCT040 20/15 Q1016
LPPD 210000Z 32006KT 290V360 9999 FEW022 SCT035 20/15 Q1016
LPPD 202330Z 32007KT 290V350 9999 FEW022 SCT035 19/15 Q1016
LPPD 202300Z 31004KT 270V340 9999 FEW023 20/15 Q1016
LPPD 202230Z 33005KT 290V030 9999 FEW023 20/15 Q1016
LPPD 202200Z 34007KT 310V020 9999 FEW023 20/14 Q1016
LPPD 202130Z 33008KT 280V350 9999 FEW023 20/14 Q1016